createdAt,value
2018-12-30T00:01:09.818Z,97.70
2018-12-30T00:03:39.788Z,97.74
2018-12-30T00:06:09.310Z,97.78
2018-12-30T00:08:38.949Z,97.71
2018-12-30T00:11:08.590Z,97.61
2018-12-30T00:13:38.114Z,97.61
2018-12-30T00:16:08.113Z,97.54
2018-12-30T00:18:37.633Z,96.97
2018-12-30T00:21:09.076Z,96.91
2018-12-30T00:23:38.358Z,96.84
2018-12-30T00:26:07.757Z,96.41
2018-12-30T00:28:37.037Z,96.10
2018-12-30T00:31:07.284Z,96.14
2018-12-30T00:33:36.681Z,95.83
2018-12-30T00:36:06.560Z,95.70
2018-12-30T00:38:36.201Z,95.23
2018-12-30T00:41:05.845Z,94.97
2018-12-30T00:43:35.483Z,95.16
2018-12-30T00:46:05.125Z,94.70
2018-12-30T00:48:34.766Z,94.95
2018-12-30T00:51:04.121Z,94.87
2018-12-30T00:53:33.568Z,95.01
2018-12-30T00:56:02.850Z,95.13
2018-12-30T00:58:32.369Z,95.03
2018-12-30T01:01:01.891Z,95.08
2018-12-30T01:03:31.172Z,94.80
2018-12-30T01:06:00.453Z,94.76
2018-12-30T01:08:30.095Z,94.00
2018-12-30T01:10:59.378Z,93.87
2018-12-30T01:13:29.019Z,93.60
2018-12-30T01:15:59.518Z,93.68
2018-12-30T01:18:29.878Z,92.86
2018-12-30T01:21:00.355Z,92.65
2018-12-30T01:23:31.183Z,92.51
2018-12-30T01:26:01.687Z,92.30
2018-12-30T01:28:32.033Z,92.12
2018-12-30T01:31:02.514Z,92.07
2018-12-30T01:33:32.878Z,91.49
2018-12-30T01:36:03.113Z,91.48
2018-12-30T01:38:33.238Z,91.50
2018-12-30T01:41:03.360Z,91.84
2018-12-30T01:43:33.595Z,91.21
2018-12-30T01:46:03.953Z,90.52
2018-12-30T01:48:54.954Z,90.54
2018-12-30T01:51:32.854Z,88.99
2018-12-30T01:53:56.776Z,88.86
2018-12-30T01:56:26.876Z,88.81
2018-12-30T01:58:56.877Z,87.69
2018-12-30T02:01:26.898Z,88.06
2018-12-30T02:03:56.644Z,88.08
2018-12-30T02:06:27.241Z,87.21
2018-12-30T02:08:57.240Z,87.16
2018-12-30T02:11:27.001Z,87.19
2018-12-30T02:13:56.642Z,85.67
2018-12-30T02:16:26.782Z,85.93
2018-12-30T02:18:56.404Z,86.12
2018-12-30T02:21:26.526Z,86.21
2018-12-30T02:23:56.539Z,85.99
2018-12-30T02:26:26.530Z,86.53
2018-12-30T02:28:56.544Z,86.47
2018-12-30T02:31:26.170Z,86.44
2018-12-30T02:33:56.412Z,85.83
2018-12-30T02:36:25.944Z,86.18
2018-12-30T02:38:55.454Z,86.47
2018-12-30T02:41:27.748Z,86.36
2018-12-30T02:43:57.857Z,85.88
2018-12-30T02:46:27.636Z,85.95
2018-12-30T02:48:57.140Z,85.57
2018-12-30T02:51:29.902Z,85.81
2018-12-30T02:53:59.422Z,85.57
2018-12-30T02:56:28.944Z,85.78
2018-12-30T02:58:58.765Z,85.45
2018-12-30T03:01:28.345Z,85.41
2018-12-30T03:03:57.750Z,85.00
2018-12-30T03:06:27.387Z,84.91
2018-12-30T03:08:57.508Z,85.10
2018-12-30T03:11:26.910Z,85.04
2018-12-30T03:13:56.308Z,85.17
2018-12-30T03:16:25.566Z,84.42
2018-12-30T03:18:54.751Z,85.53
2018-12-30T03:21:23.911Z,85.65
2018-12-30T03:23:53.042Z,84.93
2018-12-30T03:26:22.205Z,84.94
2018-12-30T03:28:51.669Z,84.82
2018-12-30T03:31:21.431Z,84.50
2018-12-30T03:33:51.191Z,84.19
2018-12-30T03:36:20.952Z,84.11
2018-12-30T03:38:50.231Z,84.02
2018-12-30T03:41:19.634Z,83.84
2018-12-30T03:43:48.915Z,83.70
2018-12-30T03:46:18.196Z,84.10
2018-12-30T03:48:47.836Z,84.06
2018-12-30T03:51:17.116Z,83.90
2018-12-30T03:53:46.519Z,83.99
2018-12-30T03:56:15.800Z,84.31
2018-12-30T03:58:45.443Z,84.02
2018-12-30T04:01:14.722Z,84.39
2018-12-30T04:03:44.004Z,84.48
2018-12-30T04:06:13.283Z,84.41
2018-12-30T04:08:42.565Z,84.83
2018-12-30T04:11:11.846Z,84.59
2018-12-30T04:13:41.127Z,84.64
2018-12-30T04:16:15.465Z,84.70
2018-12-30T04:18:46.080Z,84.94
2018-12-30T04:21:16.552Z,84.57
2018-12-30T04:23:47.148Z,84.23
2018-12-30T04:26:17.518Z,84.33
2018-12-30T04:28:47.989Z,84.18
2018-12-30T04:31:18.227Z,84.69
2018-12-30T04:33:47.540Z,84.87
2018-12-30T04:36:17.322Z,84.93
2018-12-30T04:38:46.949Z,85.01
2018-12-30T04:41:16.711Z,85.16
2018-12-30T04:43:46.465Z,85.13
2018-12-30T04:46:16.236Z,85.62
2018-12-30T04:48:45.873Z,85.57
2018-12-30T04:51:15.150Z,85.35
2018-12-30T04:53:44.438Z,85.18
2018-12-30T04:56:14.193Z,84.64
2018-12-30T04:58:43.469Z,84.39
2018-12-30T05:01:12.872Z,83.91
2018-12-30T05:03:42.273Z,84.33
2018-12-30T05:06:11.553Z,84.20
2018-12-30T05:08:40.841Z,83.69
2018-12-30T05:11:10.720Z,83.86
2018-12-30T05:13:40.116Z,83.50
2018-12-30T05:16:09.886Z,83.65
2018-12-30T05:18:40.119Z,83.66
2018-12-30T05:21:09.883Z,83.81
2018-12-30T05:23:39.788Z,83.44
2018-12-30T05:26:09.794Z,83.28
2018-12-30T05:28:39.643Z,83.60
2018-12-30T05:31:09.284Z,83.56
2018-12-30T05:33:38.930Z,83.94
2018-12-30T05:36:08.809Z,83.64
2018-12-30T05:38:38.567Z,83.77
2018-12-30T05:41:08.344Z,83.27
2018-12-30T05:43:37.977Z,82.70
2018-12-30T05:46:08.089Z,83.61
2018-12-30T05:48:37.909Z,83.56
2018-12-30T05:51:07.732Z,83.80
2018-12-30T05:53:37.373Z,83.70
2018-12-30T05:56:07.016Z,83.89
2018-12-30T05:58:36.416Z,84.08
2018-12-30T06:01:06.658Z,84.32
2018-12-30T06:03:36.058Z,84.71
2018-12-30T06:06:05.700Z,84.45
2018-12-30T06:08:35.219Z,83.98
2018-12-30T06:11:05.102Z,84.00
2018-12-30T06:13:34.622Z,83.80
2018-12-30T06:16:04.143Z,84.25
2018-12-30T06:18:34.035Z,84.52
2018-12-30T06:21:03.547Z,84.40
2018-12-30T06:23:33.067Z,83.93
2018-12-30T06:26:02.707Z,83.51
2018-12-30T06:28:32.108Z,84.06
2018-12-30T06:31:01.509Z,84.26
2018-12-30T06:33:30.909Z,84.42
2018-12-30T06:36:00.311Z,84.75
2018-12-30T06:38:30.073Z,84.61
2018-12-30T06:40:59.596Z,84.78
2018-12-30T06:43:29.113Z,84.45
2018-12-30T06:45:59.119Z,84.90
2018-12-30T06:48:28.760Z,84.48
2018-12-30T06:50:58.278Z,84.00
2018-12-30T06:56:59.892Z,83.99
2018-12-30T06:59:29.602Z,84.09
2018-12-30T07:02:00.333Z,84.05
2018-12-30T07:04:30.205Z,83.87
2018-12-30T07:06:59.966Z,84.12
2018-12-30T07:09:30.090Z,83.62
2018-12-30T07:11:59.846Z,83.47
2018-12-30T07:14:29.608Z,83.42
2018-12-30T07:16:59.489Z,83.21
2018-12-30T07:19:29.131Z,83.98
2018-12-30T07:21:59.132Z,85.38
2018-12-30T07:24:29.015Z,86.42
2018-12-30T07:26:58.893Z,86.40
2018-12-30T07:29:28.775Z,86.46
2018-12-30T07:31:59.024Z,86.61
2018-12-30T07:34:29.017Z,86.29
2018-12-30T07:36:59.174Z,86.65
2018-12-30T07:39:29.261Z,86.42
2018-12-30T07:41:59.412Z,86.29
2018-12-30T07:44:29.292Z,86.43
2018-12-30T07:46:59.415Z,86.37
2018-12-30T07:49:29.893Z,86.17
2018-12-30T07:52:00.254Z,86.10
2018-12-30T07:54:30.616Z,85.97
2018-12-30T07:57:02.295Z,85.96
2018-12-30T07:59:33.012Z,86.00
2018-12-30T08:02:03.870Z,85.62
2018-12-30T08:04:34.575Z,85.71
2018-12-30T08:07:08.535Z,85.43
2018-12-30T08:09:39.254Z,85.50
2018-12-30T08:12:10.098Z,85.65
2018-12-30T08:14:40.935Z,85.48
2018-12-30T08:17:11.783Z,85.42
2018-12-30T08:19:42.501Z,86.00
2018-12-30T08:22:12.859Z,85.68
2018-12-30T08:24:43.216Z,86.03
2018-12-30T08:27:13.582Z,86.05
2018-12-30T08:29:44.177Z,86.09
2018-12-30T08:32:14.540Z,86.39
2018-12-30T08:34:44.897Z,86.07
2018-12-30T08:37:15.257Z,86.24
2018-12-30T08:39:46.699Z,86.15
2018-12-30T08:42:17.903Z,85.69
2018-12-30T08:44:48.265Z,85.65
2018-12-30T08:47:19.963Z,85.47
2018-12-30T08:49:50.297Z,85.30
2018-12-30T08:52:21.267Z,85.33
2018-12-30T08:54:51.385Z,85.54
2018-12-30T08:57:21.379Z,85.42
2018-12-30T08:59:51.979Z,85.33
2018-12-30T09:02:21.872Z,85.28
2018-12-30T09:04:51.498Z,85.47
2018-12-30T09:07:21.262Z,85.43
2018-12-30T09:09:51.022Z,85.73
2018-12-30T09:12:21.407Z,85.56
2018-12-30T09:14:51.503Z,85.70
2018-12-30T09:17:21.623Z,85.90
2018-12-30T09:19:51.385Z,86.15
2018-12-30T09:22:23.812Z,85.87
2018-12-30T09:24:57.873Z,86.08
2018-12-30T09:27:30.045Z,86.22
2018-12-30T09:30:00.869Z,85.97
2018-12-30T09:32:30.781Z,85.99
2018-12-30T09:35:03.635Z,85.94
2018-12-30T09:37:46.606Z,85.90
2018-12-30T09:40:27.875Z,85.93
2018-12-30T09:42:58.968Z,86.10
2018-12-30T09:45:29.721Z,85.80
2018-12-30T09:48:02.448Z,85.93
2018-12-30T09:50:34.848Z,85.52
2018-12-30T09:53:07.732Z,85.32
2018-12-30T09:55:37.492Z,85.50
2018-12-30T09:58:10.255Z,85.31
2018-12-30T10:00:39.901Z,85.08
2018-12-30T10:03:14.328Z,84.94
2018-12-30T10:05:47.324Z,84.93
2018-12-30T10:08:19.863Z,84.64
2018-12-30T10:10:49.846Z,84.89
2018-12-30T10:13:20.688Z,84.92
2018-12-30T10:15:50.360Z,84.83
2018-12-30T10:18:22.970Z,84.86
2018-12-30T10:20:52.742Z,84.82
2018-12-30T10:23:22.623Z,84.78
2018-12-30T10:25:52.251Z,84.79
2018-12-30T10:28:26.093Z,85.08
2018-12-30T10:30:55.375Z,84.87
2018-12-30T10:33:28.016Z,85.23
2018-12-30T10:35:57.417Z,85.40
2018-12-30T10:38:26.822Z,85.61
2018-12-30T10:40:56.218Z,85.74
2018-12-30T10:43:25.499Z,85.78
2018-12-30T10:45:54.901Z,85.78
2018-12-30T10:48:24.302Z,85.69
2018-12-30T10:50:53.582Z,85.70
2018-12-30T10:53:22.985Z,85.76
2018-12-30T10:55:52.265Z,85.41
2018-12-30T10:58:21.786Z,85.28
2018-12-30T11:00:51.073Z,85.07
2018-12-30T11:03:20.468Z,84.79
2018-12-30T11:05:50.110Z,84.48
2018-12-30T11:08:19.389Z,84.15
2018-12-30T11:10:48.792Z,84.42
2018-12-30T11:13:18.073Z,83.99
2018-12-30T11:15:47.953Z,84.08
2018-12-30T11:18:17.236Z,84.14
2018-12-30T11:20:46.635Z,84.15
2018-12-30T11:23:15.919Z,84.23
2018-12-30T11:25:45.196Z,83.99
2018-12-30T11:28:14.479Z,83.27
2018-12-30T11:30:43.760Z,83.62
2018-12-30T11:33:13.041Z,83.62
2018-12-30T11:36:12.328Z,83.22
2018-12-30T11:38:41.842Z,82.80
2018-12-30T11:41:11.123Z,82.87
2018-12-30T11:43:40.529Z,82.42
2018-12-30T11:46:10.286Z,82.27
2018-12-30T11:48:40.047Z,81.78
2018-12-30T11:51:09.571Z,82.16
2018-12-30T11:53:39.812Z,81.94
2018-12-30T11:56:09.214Z,80.70
2018-12-30T11:58:38.617Z,80.51
2018-12-30T12:01:07.894Z,80.35
2018-12-30T12:03:37.294Z,80.87
2018-12-30T12:06:06.940Z,80.65
2018-12-30T12:08:36.335Z,80.27
2018-12-30T12:11:05.977Z,80.49
2018-12-30T12:13:36.577Z,80.83
2018-12-30T12:16:05.980Z,80.25
2018-12-30T12:18:35.499Z,80.51
2018-12-30T12:21:05.261Z,80.49
2018-12-30T12:23:35.029Z,79.67
2018-12-30T12:26:12.644Z,80.55
2018-12-30T12:28:42.104Z,80.55
2018-12-30T12:31:11.506Z,79.86
2018-12-30T12:33:40.787Z,79.48
2018-12-30T12:36:10.188Z,78.79
2018-12-30T12:38:39.716Z,78.96
2018-12-30T12:41:08.992Z,78.36
2018-12-30T12:43:38.641Z,78.74
2018-12-30T12:46:08.044Z,79.27
2018-12-30T12:48:37.439Z,78.73
2018-12-30T12:51:06.971Z,78.76
2018-12-30T12:53:36.354Z,78.52
2018-12-30T12:56:06.957Z,78.27
2018-12-30T12:58:37.077Z,77.96
2018-12-30T13:01:09.958Z,78.43
2018-12-30T13:03:39.479Z,78.34
2018-12-30T13:06:09.000Z,77.98
2018-12-30T13:08:48.055Z,77.84
2018-12-30T13:11:17.401Z,78.23
2018-12-30T13:13:47.044Z,78.27
2018-12-30T13:16:16.330Z,78.69
2018-12-30T13:18:45.604Z,78.45
2018-12-30T13:21:14.887Z,78.70
2018-12-30T13:23:44.290Z,79.08
2018-12-30T13:26:13.688Z,79.35
2018-12-30T13:28:42.969Z,79.45
2018-12-30T13:31:12.370Z,79.29
2018-12-30T13:33:41.893Z,79.19
2018-12-30T13:36:12.613Z,79.27
2018-12-30T13:38:42.014Z,79.44
2018-12-30T13:41:11.539Z,79.51
2018-12-30T13:43:41.178Z,79.73
2018-12-30T13:46:10.817Z,79.83
2018-12-30T13:48:40.938Z,79.66
2018-12-30T13:54:38.542Z,80.44
2018-12-30T13:57:07.822Z,80.18
2018-12-30T13:59:38.454Z,80.53
2018-12-30T14:02:07.705Z,80.34
2018-12-30T14:04:37.105Z,80.34
2018-12-30T14:07:06.507Z,80.28
2018-12-30T14:09:35.788Z,80.56
2018-12-30T14:12:05.430Z,80.65
2018-12-30T14:14:34.950Z,80.66
2018-12-30T14:17:04.352Z,80.85
2018-12-30T14:19:33.634Z,81.24
2018-12-30T14:22:02.914Z,81.23
2018-12-30T14:24:32.437Z,81.30
2018-12-30T14:27:01.716Z,81.27
2018-12-30T14:29:31.117Z,80.97
2018-12-30T14:32:00.638Z,81.25
2018-12-30T14:34:30.039Z,81.00
2018-12-30T14:36:59.439Z,81.00
2018-12-30T14:39:28.721Z,81.25
2018-12-30T14:41:58.363Z,81.29
2018-12-30T14:44:27.643Z,81.16
2018-12-30T14:46:57.524Z,81.08
2018-12-30T14:49:27.646Z,81.39
2018-12-30T14:51:57.048Z,81.32
2018-12-30T14:54:26.328Z,81.68
2018-12-30T14:56:55.848Z,82.11
2018-12-30T14:59:25.129Z,82.20
2018-12-30T15:01:54.413Z,82.66
2018-12-30T15:04:23.811Z,82.59
2018-12-30T15:06:53.094Z,82.46
2018-12-30T15:09:22.734Z,82.62
2018-12-30T15:11:52.016Z,82.29
2018-12-30T15:14:21.297Z,82.50
2018-12-30T15:16:51.417Z,82.91
2018-12-30T15:19:21.059Z,82.71
2018-12-30T15:21:51.423Z,83.08
2018-12-30T15:24:20.948Z,83.08
2018-12-30T15:26:50.704Z,83.25
2018-12-30T15:29:20.463Z,83.48
2018-12-30T15:31:50.383Z,83.66
2018-12-30T15:34:20.120Z,83.82
2018-12-30T15:36:51.905Z,84.03
2018-12-30T15:39:21.692Z,84.35
2018-12-30T15:41:54.553Z,84.43
2018-12-30T15:44:23.948Z,84.25
2018-12-30T15:46:53.351Z,84.51
2018-12-30T15:49:23.233Z,84.64
2018-12-30T15:51:52.873Z,84.50
2018-12-30T15:54:22.152Z,84.57
2018-12-30T15:56:51.794Z,84.94
2018-12-30T15:59:21.315Z,84.84
2018-12-30T16:01:50.970Z,84.97
2018-12-30T16:04:20.236Z,85.46
2018-12-30T16:06:49.516Z,85.54
2018-12-30T16:09:18.917Z,85.45
2018-12-30T16:11:48.201Z,85.58
2018-12-30T16:14:17.719Z,85.70
2018-12-30T16:16:47.841Z,85.80
2018-12-30T16:19:17.602Z,85.92
2018-12-30T16:21:46.884Z,86.18
2018-12-30T16:24:16.764Z,86.11
2018-12-30T16:26:46.405Z,86.38
2018-12-30T16:29:15.807Z,86.54
2018-12-30T16:31:45.567Z,86.63
2018-12-30T16:34:14.848Z,86.28
2018-12-30T16:36:44.256Z,86.54
2018-12-30T16:39:13.657Z,86.40
2018-12-30T16:41:44.252Z,86.45
2018-12-30T16:44:13.774Z,86.38
2018-12-30T16:46:43.173Z,86.51
2018-12-30T16:49:24.576Z,86.79
2018-12-30T16:51:53.858Z,86.68
2018-12-30T16:54:23.258Z,86.81
2018-12-30T16:56:52.902Z,86.94
2018-12-30T16:59:22.182Z,87.06
2018-12-30T17:01:51.463Z,86.68
2018-12-30T17:04:20.743Z,86.93
2018-12-30T17:06:50.503Z,87.00
2018-12-30T17:09:20.023Z,87.10
2018-12-30T17:11:49.306Z,87.19
2018-12-30T17:14:18.589Z,87.60
2018-12-30T17:16:48.229Z,87.53
2018-12-30T17:19:24.116Z,87.23
2018-12-30T17:21:53.391Z,87.40
2018-12-30T17:24:22.669Z,87.36
2018-12-30T17:26:52.180Z,87.37
2018-12-30T17:29:21.353Z,87.58
2018-12-30T17:31:50.753Z,87.64
2018-12-30T17:34:29.875Z,87.76
2018-12-30T17:36:59.635Z,87.90
2018-12-30T17:39:28.917Z,87.76
2018-12-30T17:41:58.319Z,88.05
2018-12-30T17:44:27.598Z,87.99
2018-12-30T17:46:57.000Z,87.65
2018-12-30T17:49:26.761Z,88.41
2018-12-30T17:51:56.041Z,88.71
2018-12-30T17:54:25.924Z,88.24
2018-12-30T17:56:55.205Z,88.36
2018-12-30T17:59:24.846Z,88.23
2018-12-30T18:01:54.261Z,88.35
2018-12-30T18:04:23.888Z,88.76
2018-12-30T18:06:53.170Z,89.74
2018-12-30T18:09:22.452Z,89.42
2018-12-30T18:11:51.855Z,89.63
2018-12-30T18:14:21.255Z,89.88
2018-12-30T18:16:50.533Z,89.95
2018-12-30T18:19:20.655Z,90.48
2018-12-30T18:21:49.939Z,90.01
2018-12-30T18:24:19.218Z,89.92
2018-12-30T18:26:48.618Z,89.94
2018-12-30T18:29:18.140Z,90.55
2018-12-30T18:32:03.020Z,90.77
2018-12-30T18:34:32.541Z,90.42
2018-12-30T18:37:02.542Z,90.34
2018-12-30T18:39:31.824Z,90.65
2018-12-30T18:42:01.586Z,90.63
2018-12-30T18:44:31.107Z,90.81
2018-12-30T18:47:00.507Z,90.54
2018-12-30T18:49:30.148Z,90.50
2018-12-30T18:51:59.669Z,90.73
2018-12-30T18:54:28.951Z,90.55
2018-12-30T18:56:58.234Z,90.66
2018-12-30T18:59:27.512Z,90.87
2018-12-30T19:01:56.793Z,90.97
2018-12-30T19:07:54.636Z,91.00
2018-12-30T19:10:23.917Z,91.16
2018-12-30T19:12:53.317Z,91.80
2018-12-30T19:15:22.600Z,91.35
2018-12-30T19:17:51.880Z,91.56
2018-12-30T19:20:21.766Z,91.94
2018-12-30T19:23:02.685Z,91.97
2018-12-30T19:25:39.087Z,91.92
2018-12-30T19:28:19.513Z,92.04
2018-12-30T19:30:45.166Z,93.02
2018-12-30T19:33:14.687Z,92.66
2018-12-30T19:35:44.568Z,92.31
2018-12-30T19:38:13.849Z,92.37
2018-12-30T19:40:43.130Z,92.44
2018-12-30T19:43:12.771Z,92.76
2018-12-30T19:45:42.532Z,92.43
2018-12-30T19:48:11.933Z,92.48
2018-12-30T19:50:41.214Z,93.42
2018-12-30T19:53:10.495Z,93.78
2018-12-30T19:55:40.256Z,93.28
2018-12-30T19:58:09.536Z,93.01
2018-12-30T20:00:38.818Z,93.11
2018-12-30T20:03:08.219Z,93.20
2018-12-30T20:05:37.740Z,93.46
2018-12-30T20:08:07.143Z,93.29
2018-12-30T20:10:36.782Z,93.19
2018-12-30T20:13:09.078Z,93.20
2018-12-30T20:15:37.386Z,93.10
2018-12-30T20:18:06.666Z,93.14
2018-12-30T20:20:35.949Z,93.23
2018-12-30T20:23:05.228Z,92.96
2018-12-30T20:25:35.416Z,93.13
2018-12-30T20:28:04.941Z,92.95
2018-12-30T20:30:34.275Z,92.68
2018-12-30T20:33:04.271Z,92.71
2018-12-30T20:35:33.913Z,92.81
2018-12-30T20:38:03.195Z,92.97
2018-12-30T20:40:32.474Z,92.75
2018-12-30T20:43:09.798Z,92.65
2018-12-30T20:45:39.199Z,92.49
2018-12-30T20:48:08.479Z,92.63
2018-12-30T20:50:37.762Z,92.48
2018-12-30T20:53:07.160Z,92.35
2018-12-30T20:55:36.441Z,92.34
2018-12-30T20:58:05.722Z,92.32
2018-12-30T21:00:35.004Z,92.43
2018-12-30T21:03:04.405Z,92.55
2018-12-30T21:05:33.685Z,92.40
2018-12-30T21:08:03.087Z,92.41
2018-12-30T21:10:32.368Z,92.16
2018-12-30T21:13:01.650Z,92.25
2018-12-30T21:15:31.050Z,92.19
2018-12-30T21:18:00.451Z,92.01
2018-12-30T21:20:33.041Z,92.08
2018-12-30T21:23:02.373Z,92.09
2018-12-30T21:25:31.655Z,92.14
2018-12-30T21:28:01.057Z,92.15
2018-12-30T21:30:30.339Z,92.38
2018-12-30T21:32:59.979Z,92.20
2018-12-30T21:35:29.499Z,92.16
2018-12-30T21:37:58.780Z,92.26
2018-12-30T21:40:28.182Z,92.41
2018-12-30T21:42:57.822Z,92.55
2018-12-30T21:45:27.706Z,92.31
2018-12-30T21:47:57.103Z,92.37
2018-12-30T21:50:26.388Z,92.66
2018-12-30T21:52:55.785Z,92.65
2018-12-30T21:55:25.307Z,92.52
2018-12-30T21:58:15.590Z,92.34
2018-12-30T22:00:44.991Z,92.57
2018-12-30T22:03:14.513Z,92.34
2018-12-30T22:05:43.791Z,92.38
2018-12-30T22:08:13.072Z,92.17
2018-12-30T22:10:42.355Z,92.32
2018-12-30T22:13:11.767Z,92.57
2018-12-30T22:15:41.396Z,92.68
2018-12-30T22:18:10.677Z,92.98
2018-12-30T22:20:40.442Z,92.87
2018-12-30T22:23:09.840Z,92.88
2018-12-30T22:25:39.122Z,92.97
2018-12-30T22:28:08.401Z,93.58
2018-12-30T22:30:37.683Z,93.28
2018-12-30T22:33:07.684Z,92.98
2018-12-30T22:35:36.964Z,93.06
2018-12-30T22:38:06.246Z,92.96
2018-12-30T22:40:35.887Z,93.19
2018-12-30T22:43:05.287Z,93.20
2018-12-30T22:45:34.568Z,93.06
2018-12-30T22:48:03.849Z,93.51
2018-12-30T22:50:33.130Z,93.36
2018-12-30T22:53:02.653Z,93.25
2018-12-30T22:55:32.295Z,93.12
2018-12-30T22:58:01.574Z,93.09
2018-12-30T23:00:48.856Z,93.01
2018-12-30T23:03:18.259Z,92.97
2018-12-30T23:05:47.539Z,93.34
2018-12-30T23:08:16.818Z,93.24
2018-12-30T23:10:47.780Z,92.95
2018-12-30T23:13:20.542Z,92.93
2018-12-30T23:15:51.522Z,93.43
2018-12-30T23:18:22.396Z,93.25
2018-12-30T23:20:53.203Z,92.88
2018-12-30T23:23:24.043Z,92.68
2018-12-30T23:25:55.245Z,93.03
2018-12-30T23:28:25.602Z,93.13
2018-12-30T23:30:56.446Z,92.90
2018-12-30T23:33:27.287Z,93.45
2018-12-30T23:35:58.244Z,93.69
2018-12-30T23:38:28.609Z,93.66
2018-12-30T23:40:59.566Z,93.41
2018-12-30T23:43:29.807Z,93.18
2018-12-30T23:46:00.165Z,93.29
2018-12-30T23:48:30.405Z,93.36
2018-12-30T23:51:00.646Z,93.31
2018-12-30T23:53:33.889Z,94.00
2018-12-30T23:56:04.005Z,94.11
2018-12-30T23:58:34.247Z,93.88
